sensor_id;sensor_type;location;lat;lon;timestamp;P1;durP1;ratioP1;P2;durP2;ratioP2
572;SDS011;271;51.114;13.780;2023-04-15T00:00:25;17.83;;;2.80;;
572;SDS011;271;51.114;13.780;2023-04-15T00:03:13;17.13;;;2.67;;
572;SDS011;271;51.114;13.780;2023-04-15T00:06:02;17.08;;;2.40;;
572;SDS011;271;51.114;13.780;2023-04-15T00:08:50;17.67;;;2.78;;
572;SDS011;271;51.114;13.780;2023-04-15T00:11:38;17.95;;;3.00;;
572;SDS011;271;51.114;13.780;2023-04-15T00:14:26;18.23;;;3.30;;
572;SDS011;271;51.114;13.780;2023-04-15T00:17:13;17.30;;;2.90;;
572;SDS011;271;51.114;13.780;2023-04-15T00:20:01;17.50;;;2.80;;
572;SDS011;271;51.114;13.780;2023-04-15T00:22:52;17.70;;;2.85;;
572;SDS011;271;51.114;13.780;2023-04-15T00:25:40;17.20;;;2.80;;
572;SDS011;271;51.114;13.780;2023-04-15T00:28:27;17.30;;;2.50;;
572;SDS011;271;51.114;13.780;2023-04-15T00:31:15;18.33;;;3.00;;
572;SDS011;271;51.114;13.780;2023-04-15T00:34:03;17.83;;;3.17;;
572;SDS011;271;51.114;13.780;2023-04-15T00:36:51;17.45;;;2.80;;
572;SDS011;271;51.114;13.780;2023-04-15T00:39:40;17.00;;;2.75;;
572;SDS011;271;51.114;13.780;2023-04-15T00:42:27;16.92;;;2.28;;
572;SDS011;271;51.114;13.780;2023-04-15T00:45:16;16.73;;;2.20;;
572;SDS011;271;51.114;13.780;2023-04-15T00:48:03;17.65;;;3.03;;
572;SDS011;271;51.114;13.780;2023-04-15T00:50:52;17.00;;;2.20;;
572;SDS011;271;51.114;13.780;2023-04-15T00:53:39;17.10;;;2.55;;
572;SDS011;271;51.114;13.780;2023-04-15T00:56:29;16.60;;;2.22;;
572;SDS011;271;51.114;13.780;2023-04-15T00:59:17;17.25;;;2.78;;
572;SDS011;271;51.114;13.780;2023-04-15T01:02:06;17.23;;;2.55;;
572;SDS011;271;51.114;13.780;2023-04-15T01:04:53;17.05;;;2.92;;
572;SDS011;271;51.114;13.780;2023-04-15T01:07:42;17.35;;;3.20;;
572;SDS011;271;51.114;13.780;2023-04-15T01:10:30;17.08;;;2.83;;
572;SDS011;271;51.114;13.780;2023-04-15T01:13:20;17.20;;;2.60;;
572;SDS011;271;51.114;13.780;2023-04-15T01:16:09;17.60;;;2.88;;
572;SDS011;271;51.114;13.780;2023-04-15T01:18:57;17.42;;;3.08;;
572;SDS011;271;51.114;13.780;2023-04-15T01:21:45;17.30;;;3.00;;
572;SDS011;271;51.114;13.780;2023-04-15T01:24:33;17.95;;;3.50;;
572;SDS011;271;51.114;13.780;2023-04-15T01:27:24;17.30;;;2.78;;
572;SDS011;271;51.114;13.780;2023-04-15T01:30:12;17.42;;;3.15;;
572;SDS011;271;51.114;13.780;2023-04-15T01:33:00;17.63;;;3.00;;
572;SDS011;271;51.114;13.780;2023-04-15T01:35:48;17.38;;;3.13;;
572;SDS011;271;51.114;13.780;2023-04-15T01:38:36;17.85;;;3.33;;
572;SDS011;271;51.114;13.780;2023-04-15T01:41:24;17.70;;;3.60;;
572;SDS011;271;51.114;13.780;2023-04-15T01:44:14;17.25;;;3.05;;
572;SDS011;271;51.114;13.780;2023-04-15T01:47:01;17.92;;;3.25;;
572;SDS011;271;51.114;13.780;2023-04-15T01:49:50;17.63;;;3.30;;
572;SDS011;271;51.114;13.780;2023-04-15T01:52:38;17.30;;;3.22;;
572;SDS011;271;51.114;13.780;2023-04-15T01:55:25;18.67;;;3.45;;
572;SDS011;271;51.114;13.780;2023-04-15T01:58:13;18.30;;;3.50;;
572;SDS011;271;51.114;13.780;2023-04-15T02:01:02;17.77;;;3.30;;
572;SDS011;271;51.114;13.780;2023-04-15T02:03:50;18.20;;;3.88;;
572;SDS011;271;51.114;13.780;2023-04-15T02:06:38;18.10;;;3.55;;
572;SDS011;271;51.114;13.780;2023-04-15T02:09:25;18.20;;;3.38;;
572;SDS011;271;51.114;13.780;2023-04-15T02:12:13;20.75;;;3.50;;
572;SDS011;271;51.114;13.780;2023-04-15T02:15:01;17.92;;;2.80;;
572;SDS011;271;51.114;13.780;2023-04-15T02:17:50;18.27;;;3.50;;
572;SDS011;271;51.114;13.780;2023-04-15T02:20:40;18.10;;;3.78;;
572;SDS011;271;51.114;13.780;2023-04-15T02:23:28;17.58;;;3.30;;
572;SDS011;271;51.114;13.780;2023-04-15T02:26:15;17.40;;;3.38;;
572;SDS011;271;51.114;13.780;2023-04-15T02:29:03;18.33;;;3.17;;
572;SDS011;271;51.114;13.780;2023-04-15T02:31:51;19.27;;;4.13;;
572;SDS011;271;51.114;13.780;2023-04-15T02:34:40;18.10;;;3.42;;
572;SDS011;271;51.114;13.780;2023-04-15T02:37:28;18.98;;;3.17;;
572;SDS011;271;51.114;13.780;2023-04-15T02:40:16;18.00;;;3.50;;
572;SDS011;271;51.114;13.780;2023-04-15T02:43:04;18.25;;;3.70;;
572;SDS011;271;51.114;13.780;2023-04-15T02:45:52;17.83;;;3.33;;
572;SDS011;271;51.114;13.780;2023-04-15T02:48:40;18.33;;;3.47;;
572;SDS011;271;51.114;13.780;2023-04-15T02:51:29;19.45;;;3.72;;
572;SDS011;271;51.114;13.780;2023-04-15T02:54:17;17.58;;;3.35;;
572;SDS011;271;51.114;13.780;2023-04-15T02:57:05;18.08;;;3.83;;
572;SDS011;271;51.114;13.780;2023-04-15T02:59:53;17.70;;;3.67;;
572;SDS011;271;51.114;13.780;2023-04-15T03:02:40;17.65;;;3.25;;
572;SDS011;271;51.114;13.780;2023-04-15T03:05:29;17.92;;;3.40;;
572;SDS011;271;51.114;13.780;2023-04-15T03:08:18;18.15;;;3.47;;
572;SDS011;271;51.114;13.780;2023-04-15T03:11:06;17.88;;;3.45;;
572;SDS011;271;51.114;13.780;2023-04-15T03:13:54;17.35;;;3.42;;
572;SDS011;271;51.114;13.780;2023-04-15T03:16:41;18.75;;;3.97;;
572;SDS011;271;51.114;13.780;2023-04-15T03:19:29;18.20;;;3.58;;
572;SDS011;271;51.114;13.780;2023-04-15T03:22:17;18.77;;;4.63;;
572;SDS011;271;51.114;13.780;2023-04-15T03:25:06;17.75;;;3.63;;
572;SDS011;271;51.114;13.780;2023-04-15T03:27:55;17.67;;;3.47;;
572;SDS011;271;51.114;13.780;2023-04-15T03:30:43;19.00;;;4.13;;
572;SDS011;271;51.114;13.780;2023-04-15T03:33:30;19.35;;;4.25;;
572;SDS011;271;51.114;13.780;2023-04-15T03:36:18;18.67;;;3.92;;
572;SDS011;271;51.114;13.780;2023-04-15T03:39:06;19.30;;;3.75;;
572;SDS011;271;51.114;13.780;2023-04-15T03:41:55;18.23;;;4.35;;
572;SDS011;271;51.114;13.780;2023-04-15T03:44:42;18.35;;;4.40;;
572;SDS011;271;51.114;13.780;2023-04-15T03:47:30;18.65;;;4.50;;
572;SDS011;271;51.114;13.780;2023-04-15T03:50:18;19.02;;;4.45;;
572;SDS011;271;51.114;13.780;2023-04-15T03:53:06;18.80;;;4.65;;
572;SDS011;271;51.114;13.780;2023-04-15T03:55:53;19.08;;;4.45;;
572;SDS011;271;51.114;13.780;2023-04-15T03:58:43;19.58;;;4.72;;
572;SDS011;271;51.114;13.780;2023-04-15T04:01:30;19.42;;;5.18;;
572;SDS011;271;51.114;13.780;2023-04-15T04:04:18;21.15;;;5.18;;
572;SDS011;271;51.114;13.780;2023-04-15T04:07:06;21.58;;;5.70;;
572;SDS011;271;51.114;13.780;2023-04-15T04:09:54;19.77;;;5.07;;
572;SDS011;271;51.114;13.780;2023-04-15T04:12:42;21.13;;;5.65;;
572;SDS011;271;51.114;13.780;2023-04-15T04:15:31;20.20;;;5.70;;
572;SDS011;271;51.114;13.780;2023-04-15T04:18:19;19.88;;;5.55;;
572;SDS011;271;51.114;13.780;2023-04-15T04:21:06;21.05;;;5.43;;
572;SDS011;271;51.114;13.780;2023-04-15T04:23:54;21.02;;;5.75;;
572;SDS011;271;51.114;13.780;2023-04-15T04:26:43;20.75;;;5.53;;
572;SDS011;271;51.114;13.780;2023-04-15T04:29:31;19.40;;;4.90;;
572;SDS011;271;51.114;13.780;2023-04-15T04:32:20;21.40;;;6.18;;
572;SDS011;271;51.114;13.780;2023-04-15T04:35:08;20.20;;;5.50;;
572;SDS011;271;51.114;13.780;2023-04-15T04:37:56;21.70;;;6.20;;
572;SDS011;271;51.114;13.780;2023-04-15T04:40:43;20.80;;;5.97;;
572;SDS011;271;51.114;13.780;2023-04-15T04:43:31;20.80;;;6.43;;
572;SDS011;271;51.114;13.780;2023-04-15T04:46:19;19.98;;;5.40;;
572;SDS011;271;51.114;13.780;2023-04-15T04:49:08;20.98;;;6.18;;
572;SDS011;271;51.114;13.780;2023-04-15T04:51:55;22.33;;;6.80;;
572;SDS011;271;51.114;13.780;2023-04-15T04:54:43;21.25;;;6.45;;
572;SDS011;271;51.114;13.780;2023-04-15T04:57:32;20.08;;;5.30;;
572;SDS011;271;51.114;13.780;2023-04-15T05:00:20;20.25;;;5.80;;
572;SDS011;271;51.114;13.780;2023-04-15T05:03:08;20.30;;;6.10;;
572;SDS011;271;51.114;13.780;2023-04-15T05:05:57;20.48;;;5.40;;
572;SDS011;271;51.114;13.780;2023-04-15T05:08:45;20.73;;;5.63;;
572;SDS011;271;51.114;13.780;2023-04-15T05:11:33;20.95;;;5.47;;
572;SDS011;271;51.114;13.780;2023-04-15T05:14:20;19.60;;;5.00;;
572;SDS011;271;51.114;13.780;2023-04-15T05:17:08;20.88;;;5.70;;
572;SDS011;271;51.114;13.780;2023-04-15T05:19:56;19.88;;;5.28;;
572;SDS011;271;51.114;13.780;2023-04-15T05:22:45;21.10;;;5.68;;
572;SDS011;271;51.114;13.780;2023-04-15T05:25:33;23.38;;;6.82;;
572;SDS011;271;51.114;13.780;2023-04-15T05:28:21;22.48;;;6.72;;
572;SDS011;271;51.114;13.780;2023-04-15T05:31:08;21.50;;;5.90;;
572;SDS011;271;51.114;13.780;2023-04-15T05:33:56;21.40;;;5.68;;
572;SDS011;271;51.114;13.780;2023-04-15T05:36:44;20.67;;;5.40;;
572;SDS011;271;51.114;13.780;2023-04-15T05:39:33;23.20;;;6.63;;
572;SDS011;271;51.114;13.780;2023-04-15T05:42:20;22.40;;;6.18;;
572;SDS011;271;51.114;13.780;2023-04-15T05:45:08;21.80;;;6.15;;
572;SDS011;271;51.114;13.780;2023-04-15T05:47:57;21.92;;;6.80;;
572;SDS011;271;51.114;13.780;2023-04-15T05:50:44;21.90;;;6.22;;
572;SDS011;271;51.114;13.780;2023-04-15T05:53:33;22.25;;;7.00;;
572;SDS011;271;51.114;13.780;2023-04-15T05:56:22;22.77;;;6.53;;
572;SDS011;271;51.114;13.780;2023-04-15T05:59:11;21.40;;;6.25;;
572;SDS011;271;51.114;13.780;2023-04-15T06:01:59;23.02;;;6.88;;
572;SDS011;271;51.114;13.780;2023-04-15T06:04:46;23.23;;;7.30;;
572;SDS011;271;51.114;13.780;2023-04-15T06:07:34;23.40;;;8.10;;
572;SDS011;271;51.114;13.780;2023-04-15T06:10:22;24.85;;;7.50;;
572;SDS011;271;51.114;13.780;2023-04-15T06:13:14;22.60;;;7.15;;
572;SDS011;271;51.114;13.780;2023-04-15T06:16:02;23.65;;;7.53;;
572;SDS011;271;51.114;13.780;2023-04-15T06:18:50;26.38;;;9.13;;
572;SDS011;271;51.114;13.780;2023-04-15T06:21:38;23.90;;;8.15;;
572;SDS011;271;51.114;13.780;2023-04-15T06:24:26;23.27;;;7.50;;
572;SDS011;271;51.114;13.780;2023-04-15T06:27:17;22.17;;;7.00;;
572;SDS011;271;51.114;13.780;2023-04-15T06:30:07;21.45;;;6.57;;
572;SDS011;271;51.114;13.780;2023-04-15T06:32:55;20.65;;;5.35;;
572;SDS011;271;51.114;13.780;2023-04-15T06:35:43;21.23;;;5.78;;
572;SDS011;271;51.114;13.780;2023-04-15T06:38:32;21.15;;;6.53;;
572;SDS011;271;51.114;13.780;2023-04-15T06:41:22;21.25;;;6.28;;
572;SDS011;271;51.114;13.780;2023-04-15T06:44:11;21.27;;;6.35;;
572;SDS011;271;51.114;13.780;2023-04-15T06:47:01;19.92;;;5.70;;
572;SDS011;271;51.114;13.780;2023-04-15T06:49:50;19.30;;;4.57;;
572;SDS011;271;51.114;13.780;2023-04-15T06:52:39;18.60;;;4.20;;
572;SDS011;271;51.114;13.780;2023-04-15T06:55:28;19.15;;;4.40;;
572;SDS011;271;51.114;13.780;2023-04-15T06:58:18;20.55;;;6.00;;
572;SDS011;271;51.114;13.780;2023-04-15T07:01:07;18.35;;;4.10;;
572;SDS011;271;51.114;13.780;2023-04-15T07:03:57;18.60;;;4.50;;
572;SDS011;271;51.114;13.780;2023-04-15T07:06:45;19.50;;;5.15;;
572;SDS011;271;51.114;13.780;2023-04-15T07:09:33;18.20;;;4.20;;
572;SDS011;271;51.114;13.780;2023-04-15T07:12:22;18.70;;;4.50;;
572;SDS011;271;51.114;13.780;2023-04-15T07:15:10;19.10;;;3.88;;
572;SDS011;271;51.114;13.780;2023-04-15T07:17:58;17.67;;;3.40;;
572;SDS011;271;51.114;13.780;2023-04-15T07:20:50;17.40;;;3.20;;
572;SDS011;271;51.114;13.780;2023-04-15T07:23:39;16.88;;;2.88;;
572;SDS011;271;51.114;13.780;2023-04-15T07:26:28;18.20;;;4.20;;
572;SDS011;271;51.114;13.780;2023-04-15T07:29:16;20.25;;;3.47;;
572;SDS011;271;51.114;13.780;2023-04-15T07:32:03;15.82;;;2.03;;
572;SDS011;271;51.114;13.780;2023-04-15T07:34:52;16.85;;;2.95;;
572;SDS011;271;51.114;13.780;2023-04-15T07:37:43;17.40;;;2.70;;
572;SDS011;271;51.114;13.780;2023-04-15T07:40:31;17.65;;;2.80;;
572;SDS011;271;51.114;13.780;2023-04-15T07:43:19;17.05;;;3.20;;
572;SDS011;271;51.114;13.780;2023-04-15T07:46:07;20.80;;;4.05;;
572;SDS011;271;51.114;13.780;2023-04-15T07:48:55;17.88;;;3.70;;
572;SDS011;271;51.114;13.780;2023-04-15T07:51:44;17.88;;;4.07;;
572;SDS011;271;51.114;13.780;2023-04-15T07:54:37;16.88;;;2.83;;
572;SDS011;271;51.114;13.780;2023-04-15T07:57:24;18.45;;;3.95;;
572;SDS011;271;51.114;13.780;2023-04-15T08:00:13;17.63;;;3.50;;
572;SDS011;271;51.114;13.780;2023-04-15T08:03:01;17.02;;;3.30;;
572;SDS011;271;51.114;13.780;2023-04-15T08:05:50;17.23;;;3.28;;
572;SDS011;271;51.114;13.780;2023-04-15T08:08:39;17.42;;;3.58;;
572;SDS011;271;51.114;13.780;2023-04-15T08:11:31;16.92;;;2.92;;
572;SDS011;271;51.114;13.780;2023-04-15T08:14:19;16.35;;;2.88;;
572;SDS011;271;51.114;13.780;2023-04-15T08:17:07;17.30;;;3.30;;
572;SDS011;271;51.114;13.780;2023-04-15T08:19:54;16.25;;;2.50;;
572;SDS011;271;51.114;13.780;2023-04-15T08:22:45;17.40;;;3.33;;
572;SDS011;271;51.114;13.780;2023-04-15T08:25:36;16.73;;;2.95;;
572;SDS011;271;51.114;13.780;2023-04-15T08:28:25;16.58;;;2.55;;
572;SDS011;271;51.114;13.780;2023-04-15T08:31:13;16.90;;;2.30;;
572;SDS011;271;51.114;13.780;2023-04-15T08:34:01;16.30;;;2.20;;
572;SDS011;271;51.114;13.780;2023-04-15T08:36:49;16.13;;;1.77;;
572;SDS011;271;51.114;13.780;2023-04-15T08:39:40;16.67;;;2.60;;
572;SDS011;271;51.114;13.780;2023-04-15T08:42:30;16.33;;;2.00;;
572;SDS011;271;51.114;13.780;2023-04-15T08:45:21;16.98;;;3.00;;
572;SDS011;271;51.114;13.780;2023-04-15T08:48:09;17.00;;;2.08;;
572;SDS011;271;51.114;13.780;2023-04-15T08:51:01;16.48;;;2.42;;
572;SDS011;271;51.114;13.780;2023-04-15T08:53:49;17.67;;;2.17;;
572;SDS011;271;51.114;13.780;2023-04-15T08:56:38;16.40;;;1.40;;
572;SDS011;271;51.114;13.780;2023-04-15T08:59:26;16.05;;;1.50;;
572;SDS011;271;51.114;13.780;2023-04-15T09:02:17;16.17;;;1.80;;
572;SDS011;271;51.114;13.780;2023-04-15T09:05:06;16.30;;;1.55;;
572;SDS011;271;51.114;13.780;2023-04-15T09:07:55;16.50;;;1.97;;
572;SDS011;271;51.114;13.780;2023-04-15T09:10:43;16.67;;;1.87;;
572;SDS011;271;51.114;13.780;2023-04-15T09:13:37;16.80;;;2.30;;
572;SDS011;271;51.114;13.780;2023-04-15T09:16:25;17.43;;;2.97;;
572;SDS011;271;51.114;13.780;2023-04-15T09:19:21;17.97;;;3.07;;
572;SDS011;271;51.114;13.780;2023-04-15T09:22:10;17.63;;;3.83;;
572;SDS011;271;51.114;13.780;2023-04-15T09:24:59;17.63;;;3.50;;
572;SDS011;271;51.114;13.780;2023-04-15T09:27:47;17.85;;;3.70;;
572;SDS011;271;51.114;13.780;2023-04-15T09:30:45;18.30;;;4.10;;
572;SDS011;271;51.114;13.780;2023-04-15T09:33:53;19.77;;;4.88;;
572;SDS011;271;51.114;13.780;2023-04-15T09:36:59;18.45;;;4.05;;
572;SDS011;271;51.114;13.780;2023-04-15T09:39:56;19.40;;;4.93;;
572;SDS011;271;51.114;13.780;2023-04-15T09:42:54;19.67;;;4.50;;
572;SDS011;271;51.114;13.780;2023-04-15T09:45:46;19.63;;;3.95;;
572;SDS011;271;51.114;13.780;2023-04-15T09:48:34;18.83;;;4.35;;
572;SDS011;271;51.114;13.780;2023-04-15T09:51:32;18.27;;;3.80;;
572;SDS011;271;51.114;13.780;2023-04-15T09:54:22;19.88;;;4.80;;
572;SDS011;271;51.114;13.780;2023-04-15T09:57:11;18.70;;;4.03;;
572;SDS011;271;51.114;13.780;2023-04-15T09:59:58;19.35;;;4.20;;
572;SDS011;271;51.114;13.780;2023-04-15T10:02:46;19.45;;;4.90;;
572;SDS011;271;51.114;13.780;2023-04-15T10:05:35;19.00;;;4.45;;
572;SDS011;271;51.114;13.780;2023-04-15T10:08:25;18.83;;;4.30;;
572;SDS011;271;51.114;13.780;2023-04-15T10:11:16;19.58;;;5.07;;
572;SDS011;271;51.114;13.780;2023-04-15T10:14:07;19.05;;;4.20;;
572;SDS011;271;51.114;13.780;2023-04-15T10:17:06;18.95;;;4.57;;
572;SDS011;271;51.114;13.780;2023-04-15T10:20:00;18.25;;;4.30;;
572;SDS011;271;51.114;13.780;2023-04-15T10:22:52;19.02;;;3.67;;
572;SDS011;271;51.114;13.780;2023-04-15T10:25:41;19.63;;;4.90;;
572;SDS011;271;51.114;13.780;2023-04-15T10:28:37;19.45;;;5.00;;
572;SDS011;271;51.114;13.780;2023-04-15T10:31:28;20.23;;;5.05;;
572;SDS011;271;51.114;13.780;2023-04-15T10:34:25;19.08;;;5.40;;
572;SDS011;271;51.114;13.780;2023-04-15T10:37:19;19.60;;;4.93;;
572;SDS011;271;51.114;13.780;2023-04-15T10:40:24;19.05;;;4.95;;
572;SDS011;271;51.114;13.780;2023-04-15T10:43:25;19.83;;;4.90;;
572;SDS011;271;51.114;13.780;2023-04-15T10:46:33;20.30;;;5.28;;
572;SDS011;271;51.114;13.780;2023-04-15T10:49:23;19.40;;;4.80;;
572;SDS011;271;51.114;13.780;2023-04-15T10:52:13;18.92;;;4.85;;
572;SDS011;271;51.114;13.780;2023-04-15T10:55:11;18.25;;;4.30;;
572;SDS011;271;51.114;13.780;2023-04-15T10:58:01;18.40;;;4.28;;
572;SDS011;271;51.114;13.780;2023-04-15T11:01:01;18.60;;;4.07;;
572;SDS011;271;51.114;13.780;2023-04-15T11:04:01;19.73;;;4.33;;
572;SDS011;271;51.114;13.780;2023-04-15T11:06:50;18.50;;;4.00;;
572;SDS011;271;51.114;13.780;2023-04-15T11:10:02;17.55;;;2.90;;
572;SDS011;271;51.114;13.780;2023-04-15T11:12:52;17.90;;;3.10;;
572;SDS011;271;51.114;13.780;2023-04-15T11:15:45;18.60;;;3.90;;
572;SDS011;271;51.114;13.780;2023-04-15T11:18:37;18.97;;;3.93;;
572;SDS011;271;51.114;13.780;2023-04-15T11:21:27;17.40;;;3.28;;
572;SDS011;271;51.114;13.780;2023-04-15T11:24:22;17.52;;;3.20;;
572;SDS011;271;51.114;13.780;2023-04-15T11:27:19;18.50;;;3.30;;
572;SDS011;271;51.114;13.780;2023-04-15T11:30:20;18.07;;;3.00;;
572;SDS011;271;51.114;13.780;2023-04-15T11:33:11;16.70;;;2.30;;
572;SDS011;271;51.114;13.780;2023-04-15T11:36:01;17.53;;;3.20;;
572;SDS011;271;51.114;13.780;2023-04-15T11:38:51;17.47;;;2.60;;
572;SDS011;271;51.114;13.780;2023-04-15T11:41:40;16.80;;;2.80;;
572;SDS011;271;51.114;13.780;2023-04-15T11:44:30;17.10;;;3.10;;
572;SDS011;271;51.114;13.780;2023-04-15T11:47:21;17.30;;;3.20;;
572;SDS011;271;51.114;13.780;2023-04-15T11:50:13;16.73;;;2.80;;
572;SDS011;271;51.114;13.780;2023-04-15T11:53:03;17.20;;;2.70;;
572;SDS011;271;51.114;13.780;2023-04-15T11:55:53;16.60;;;2.60;;
572;SDS011;271;51.114;13.780;2023-04-15T11:58:42;16.63;;;2.50;;
572;SDS011;271;51.114;13.780;2023-04-15T12:01:36;16.93;;;2.40;;
572;SDS011;271;51.114;13.780;2023-04-15T12:04:29;17.00;;;2.40;;
572;SDS011;271;51.114;13.780;2023-04-15T12:07:18;16.70;;;2.80;;
572;SDS011;271;51.114;13.780;2023-04-15T12:10:08;16.40;;;2.10;;
572;SDS011;271;51.114;13.780;2023-04-15T12:12:58;16.40;;;2.00;;
572;SDS011;271;51.114;13.780;2023-04-15T12:15:48;16.00;;;1.73;;
572;SDS011;271;51.114;13.780;2023-04-15T12:18:40;16.53;;;2.33;;
572;SDS011;271;51.114;13.780;2023-04-15T12:21:36;16.73;;;2.10;;
572;SDS011;271;51.114;13.780;2023-04-15T12:24:30;16.47;;;2.00;;
572;SDS011;271;51.114;13.780;2023-04-15T12:27:39;16.03;;;1.80;;
572;SDS011;271;51.114;13.780;2023-04-15T12:30:44;16.60;;;2.47;;
572;SDS011;271;51.114;13.780;2023-04-15T12:33:42;15.60;;;1.90;;
572;SDS011;271;51.114;13.780;2023-04-15T12:36:57;15.73;;;1.77;;
572;SDS011;271;51.114;13.780;2023-04-15T12:39:47;15.20;;;1.57;;
572;SDS011;271;51.114;13.780;2023-04-15T12:42:36;15.33;;;1.57;;
572;SDS011;271;51.114;13.780;2023-04-15T12:45:25;15.40;;;1.70;;
572;SDS011;271;51.114;13.780;2023-04-15T12:51:36;16.20;;;2.00;;
572;SDS011;271;51.114;13.780;2023-04-15T12:54:27;15.60;;;1.70;;
572;SDS011;271;51.114;13.780;2023-04-15T12:57:38;16.07;;;1.83;;
572;SDS011;271;51.114;13.780;2023-04-15T13:00:28;16.30;;;2.30;;
572;SDS011;271;51.114;13.780;2023-04-15T13:03:17;16.27;;;2.10;;
572;SDS011;271;51.114;13.780;2023-04-15T13:06:09;15.17;;;1.53;;
572;SDS011;271;51.114;13.780;2023-04-15T13:09:01;15.80;;;1.73;;
572;SDS011;271;51.114;13.780;2023-04-15T13:11:53;15.37;;;1.70;;
572;SDS011;271;51.114;13.780;2023-04-15T13:14:55;15.50;;;1.70;;
572;SDS011;271;51.114;13.780;2023-04-15T13:17:52;15.30;;;1.60;;
572;SDS011;271;51.114;13.780;2023-04-15T13:20:41;15.83;;;2.13;;
572;SDS011;271;51.114;13.780;2023-04-15T13:23:32;15.50;;;1.97;;
572;SDS011;271;51.114;13.780;2023-04-15T13:26:23;18.47;;;2.20;;
572;SDS011;271;51.114;13.780;2023-04-15T13:29:13;15.17;;;1.60;;
572;SDS011;271;51.114;13.780;2023-04-15T13:32:05;15.27;;;1.93;;
572;SDS011;271;51.114;13.780;2023-04-15T13:34:55;15.43;;;1.77;;
572;SDS011;271;51.114;13.780;2023-04-15T13:37:44;15.30;;;1.80;;
572;SDS011;271;51.114;13.780;2023-04-15T13:40:52;15.00;;;1.70;;
572;SDS011;271;51.114;13.780;2023-04-15T13:43:50;16.07;;;1.60;;
572;SDS011;271;51.114;13.780;2023-04-15T13:46:41;15.60;;;2.10;;
572;SDS011;271;51.114;13.780;2023-04-15T13:49:32;15.40;;;1.77;;
572;SDS011;271;51.114;13.780;2023-04-15T13:52:24;15.40;;;1.60;;
572;SDS011;271;51.114;13.780;2023-04-15T13:55:12;18.50;;;1.70;;
572;SDS011;271;51.114;13.780;2023-04-15T13:58:03;14.83;;;1.50;;
572;SDS011;271;51.114;13.780;2023-04-15T14:00:51;15.00;;;1.33;;
572;SDS011;271;51.114;13.780;2023-04-15T14:03:39;15.37;;;1.67;;
572;SDS011;271;51.114;13.780;2023-04-15T14:06:28;16.33;;;1.60;;
572;SDS011;271;51.114;13.780;2023-04-15T14:09:17;15.90;;;1.30;;
572;SDS011;271;51.114;13.780;2023-04-15T14:12:07;16.93;;;1.70;;
572;SDS011;271;51.114;13.780;2023-04-15T14:14:56;15.90;;;1.43;;
572;SDS011;271;51.114;13.780;2023-04-15T14:17:44;16.10;;;1.50;;
572;SDS011;271;51.114;13.780;2023-04-15T14:20:32;16.10;;;1.60;;
572;SDS011;271;51.114;13.780;2023-04-15T14:23:20;16.10;;;1.50;;
572;SDS011;271;51.114;13.780;2023-04-15T14:26:08;16.13;;;1.60;;
572;SDS011;271;51.114;13.780;2023-04-15T14:28:56;15.67;;;1.57;;
572;SDS011;271;51.114;13.780;2023-04-15T14:31:45;17.30;;;1.70;;
572;SDS011;271;51.114;13.780;2023-04-15T14:34:33;16.17;;;1.30;;
572;SDS011;271;51.114;13.780;2023-04-15T14:37:21;15.80;;;1.50;;
572;SDS011;271;51.114;13.780;2023-04-15T14:40:09;15.67;;;1.20;;
572;SDS011;271;51.114;13.780;2023-04-15T14:42:57;16.37;;;1.73;;
572;SDS011;271;51.114;13.780;2023-04-15T14:45:45;16.50;;;1.87;;
572;SDS011;271;51.114;13.780;2023-04-15T14:48:34;16.10;;;1.80;;
572;SDS011;271;51.114;13.780;2023-04-15T14:51:22;16.13;;;1.83;;
572;SDS011;271;51.114;13.780;2023-04-15T14:54:11;15.83;;;1.70;;
572;SDS011;271;51.114;13.780;2023-04-15T14:57:02;16.20;;;1.90;;
572;SDS011;271;51.114;13.780;2023-04-15T14:59:50;16.10;;;2.10;;
572;SDS011;271;51.114;13.780;2023-04-15T15:02:41;17.40;;;3.30;;
572;SDS011;271;51.114;13.780;2023-04-15T15:05:30;17.10;;;2.40;;
572;SDS011;271;51.114;13.780;2023-04-15T15:08:18;16.20;;;1.70;;
572;SDS011;271;51.114;13.780;2023-04-15T15:11:06;16.43;;;1.80;;
572;SDS011;271;51.114;13.780;2023-04-15T15:13:53;16.23;;;1.90;;
572;SDS011;271;51.114;13.780;2023-04-15T15:16:41;15.97;;;1.73;;
572;SDS011;271;51.114;13.780;2023-04-15T15:19:31;18.50;;;2.00;;
572;SDS011;271;51.114;13.780;2023-04-15T15:22:21;16.53;;;1.63;;
572;SDS011;271;51.114;13.780;2023-04-15T15:25:09;16.10;;;1.70;;
572;SDS011;271;51.114;13.780;2023-04-15T15:27:57;16.07;;;1.60;;
572;SDS011;271;51.114;13.780;2023-04-15T15:30:44;18.10;;;2.03;;
572;SDS011;271;51.114;13.780;2023-04-15T15:33:32;15.57;;;1.50;;
572;SDS011;271;51.114;13.780;2023-04-15T15:36:20;16.23;;;1.87;;
572;SDS011;271;51.114;13.780;2023-04-15T15:39:17;15.43;;;1.30;;
572;SDS011;271;51.114;13.780;2023-04-15T15:42:05;16.43;;;1.60;;
572;SDS011;271;51.114;13.780;2023-04-15T15:44:53;15.77;;;1.50;;
572;SDS011;271;51.114;13.780;2023-04-15T15:47:41;15.90;;;1.53;;
572;SDS011;271;51.114;13.780;2023-04-15T15:50:29;15.47;;;1.40;;
572;SDS011;271;51.114;13.780;2023-04-15T15:53:18;18.17;;;4.53;;
572;SDS011;271;51.114;13.780;2023-04-15T15:56:10;15.60;;;1.77;;
572;SDS011;271;51.114;13.780;2023-04-15T15:58:58;15.57;;;1.53;;
572;SDS011;271;51.114;13.780;2023-04-15T16:01:46;15.30;;;1.20;;
572;SDS011;271;51.114;13.780;2023-04-15T16:04:37;15.40;;;1.33;;
572;SDS011;271;51.114;13.780;2023-04-15T16:07:25;15.53;;;1.40;;
572;SDS011;271;51.114;13.780;2023-04-15T16:10:13;15.90;;;1.30;;
572;SDS011;271;51.114;13.780;2023-04-15T16:13:02;16.27;;;1.83;;
572;SDS011;271;51.114;13.780;2023-04-15T16:15:50;17.07;;;1.90;;
572;SDS011;271;51.114;13.780;2023-04-15T16:18:38;15.80;;;1.60;;
572;SDS011;271;51.114;13.780;2023-04-15T16:21:30;16.53;;;1.53;;
572;SDS011;271;51.114;13.780;2023-04-15T16:24:18;15.27;;;1.30;;
572;SDS011;271;51.114;13.780;2023-04-15T16:27:08;16.50;;;1.87;;
572;SDS011;271;51.114;13.780;2023-04-15T16:30:02;15.57;;;1.40;;
572;SDS011;271;51.114;13.780;2023-04-15T16:32:50;15.77;;;1.50;;
572;SDS011;271;51.114;13.780;2023-04-15T16:35:38;16.37;;;1.53;;
572;SDS011;271;51.114;13.780;2023-04-15T16:38:26;15.93;;;1.60;;
572;SDS011;271;51.114;13.780;2023-04-15T16:41:14;16.03;;;1.70;;
572;SDS011;271;51.114;13.780;2023-04-15T16:44:03;15.67;;;1.40;;
572;SDS011;271;51.114;13.780;2023-04-15T16:46:54;16.03;;;1.60;;
572;SDS011;271;51.114;13.780;2023-04-15T16:49:42;16.50;;;1.90;;
572;SDS011;271;51.114;13.780;2023-04-15T16:52:30;16.00;;;1.80;;
572;SDS011;271;51.114;13.780;2023-04-15T16:55:17;16.00;;;1.80;;
572;SDS011;271;51.114;13.780;2023-04-15T16:58:05;16.33;;;1.73;;
572;SDS011;271;51.114;13.780;2023-04-15T17:00:57;16.40;;;1.60;;
572;SDS011;271;51.114;13.780;2023-04-15T17:03:46;16.57;;;1.93;;
572;SDS011;271;51.114;13.780;2023-04-15T17:06:34;15.90;;;1.80;;
572;SDS011;271;51.114;13.780;2023-04-15T17:09:21;16.60;;;2.10;;
572;SDS011;271;51.114;13.780;2023-04-15T17:12:12;17.50;;;2.70;;
572;SDS011;271;51.114;13.780;2023-04-15T17:15:00;16.60;;;2.17;;
572;SDS011;271;51.114;13.780;2023-04-15T17:17:48;16.40;;;1.93;;
572;SDS011;271;51.114;13.780;2023-04-15T17:20:37;16.83;;;2.00;;
572;SDS011;271;51.114;13.780;2023-04-15T17:23:25;16.00;;;2.07;;
572;SDS011;271;51.114;13.780;2023-04-15T17:26:13;16.13;;;1.80;;
572;SDS011;271;51.114;13.780;2023-04-15T17:29:02;16.40;;;2.07;;
572;SDS011;271;51.114;13.780;2023-04-15T17:31:50;16.40;;;1.97;;
572;SDS011;271;51.114;13.780;2023-04-15T17:37:20;15.93;;;1.90;;
572;SDS011;271;51.114;13.780;2023-04-15T17:40:08;16.37;;;2.40;;